sensor_id;sensor_type;location;lat;lon;timestamp;P1;durP1;ratioP1;P2;durP2;ratioP2
42244;SDS011;27912;51.828;5.688;2023-07-20T00:01:13;15.07;;;10.93;;
42244;SDS011;27912;51.828;5.688;2023-07-20T00:03:39;14.52;;;10.23;;
42244;SDS011;27912;51.828;5.688;2023-07-20T00:06:05;16.15;;;11.20;;
42244;SDS011;27912;51.828;5.688;2023-07-20T00:08:30;14.20;;;10.65;;
42244;SDS011;27912;51.828;5.688;2023-07-20T00:10:56;13.50;;;10.73;;
42244;SDS011;27912;51.828;5.688;2023-07-20T00:13:21;14.05;;;9.98;;
42244;SDS011;27912;51.828;5.688;2023-07-20T00:15:47;16.17;;;10.68;;
42244;SDS011;27912;51.828;5.688;2023-07-20T00:18:13;16.30;;;10.35;;
42244;SDS011;27912;51.828;5.688;2023-07-20T00:20:39;15.70;;;10.75;;
42244;SDS011;27912;51.828;5.688;2023-07-20T00:23:04;15.20;;;10.60;;
42244;SDS011;27912;51.828;5.688;2023-07-20T00:25:30;16.58;;;10.70;;
42244;SDS011;27912;51.828;5.688;2023-07-20T00:27:56;19.35;;;11.43;;
42244;SDS011;27912;51.828;5.688;2023-07-20T00:30:21;15.63;;;11.55;;
42244;SDS011;27912;51.828;5.688;2023-07-20T00:32:47;19.67;;;12.85;;
42244;SDS011;27912;51.828;5.688;2023-07-20T00:35:12;17.10;;;12.35;;
42244;SDS011;27912;51.828;5.688;2023-07-20T00:37:38;20.33;;;11.75;;
42244;SDS011;27912;51.828;5.688;2023-07-20T00:40:04;16.80;;;11.18;;
42244;SDS011;27912;51.828;5.688;2023-07-20T00:42:32;18.45;;;10.93;;
42244;SDS011;27912;51.828;5.688;2023-07-20T00:44:58;15.45;;;10.70;;
42244;SDS011;27912;51.828;5.688;2023-07-20T00:47:24;17.10;;;10.73;;
42244;SDS011;27912;51.828;5.688;2023-07-20T00:49:50;14.13;;;9.50;;
42244;SDS011;27912;51.828;5.688;2023-07-20T00:52:17;14.95;;;9.30;;
42244;SDS011;27912;51.828;5.688;2023-07-20T00:54:45;14.25;;;9.48;;
42244;SDS011;27912;51.828;5.688;2023-07-20T00:57:11;13.63;;;8.05;;
42244;SDS011;27912;51.828;5.688;2023-07-20T00:59:39;11.32;;;8.18;;
42244;SDS011;27912;51.828;5.688;2023-07-20T01:02:05;11.77;;;7.70;;
42244;SDS011;27912;51.828;5.688;2023-07-20T01:04:30;11.48;;;7.95;;
42244;SDS011;27912;51.828;5.688;2023-07-20T01:06:58;14.18;;;8.43;;
42244;SDS011;27912;51.828;5.688;2023-07-20T01:09:28;12.55;;;8.27;;
42244;SDS011;27912;51.828;5.688;2023-07-20T01:14:32;12.52;;;8.77;;
42244;SDS011;27912;51.828;5.688;2023-07-20T01:16:59;11.20;;;8.65;;
42244;SDS011;27912;51.828;5.688;2023-07-20T01:19:24;10.50;;;8.00;;
42244;SDS011;27912;51.828;5.688;2023-07-20T01:21:51;14.10;;;8.52;;
42244;SDS011;27912;51.828;5.688;2023-07-20T01:24:42;11.15;;;9.00;;
42244;SDS011;27912;51.828;5.688;2023-07-20T01:30:25;10.88;;;8.27;;
42244;SDS011;27912;51.828;5.688;2023-07-20T01:33:08;12.80;;;8.35;;
42244;SDS011;27912;51.828;5.688;2023-07-20T01:35:36;12.95;;;8.80;;
42244;SDS011;27912;51.828;5.688;2023-07-20T01:38:03;11.80;;;8.68;;
42244;SDS011;27912;51.828;5.688;2023-07-20T01:40:29;13.05;;;8.70;;
42244;SDS011;27912;51.828;5.688;2023-07-20T01:42:55;11.50;;;8.07;;
42244;SDS011;27912;51.828;5.688;2023-07-20T01:45:21;13.13;;;8.18;;
42244;SDS011;27912;51.828;5.688;2023-07-20T01:47:47;12.52;;;8.55;;
42244;SDS011;27912;51.828;5.688;2023-07-20T01:50:12;10.50;;;7.38;;
42244;SDS011;27912;51.828;5.688;2023-07-20T01:52:38;9.50;;;8.20;;
42244;SDS011;27912;51.828;5.688;2023-07-20T01:55:03;9.85;;;8.05;;
42244;SDS011;27912;51.828;5.688;2023-07-20T01:57:29;9.35;;;7.88;;
42244;SDS011;27912;51.828;5.688;2023-07-20T01:59:55;10.55;;;7.07;;
42244;SDS011;27912;51.828;5.688;2023-07-20T02:02:20;12.50;;;8.50;;
42244;SDS011;27912;51.828;5.688;2023-07-20T02:04:47;10.68;;;7.97;;
42244;SDS011;27912;51.828;5.688;2023-07-20T02:07:13;9.65;;;6.85;;
42244;SDS011;27912;51.828;5.688;2023-07-20T02:09:38;9.73;;;7.40;;
42244;SDS011;27912;51.828;5.688;2023-07-20T02:12:04;10.13;;;7.20;;
42244;SDS011;27912;51.828;5.688;2023-07-20T02:14:30;10.43;;;6.75;;
42244;SDS011;27912;51.828;5.688;2023-07-20T02:16:55;9.27;;;6.30;;
42244;SDS011;27912;51.828;5.688;2023-07-20T02:19:24;8.20;;;5.63;;
42244;SDS011;27912;51.828;5.688;2023-07-20T02:21:50;12.50;;;6.38;;
42244;SDS011;27912;51.828;5.688;2023-07-20T02:24:16;7.80;;;5.75;;
42244;SDS011;27912;51.828;5.688;2023-07-20T02:26:41;8.85;;;5.20;;
42244;SDS011;27912;51.828;5.688;2023-07-20T02:29:07;8.90;;;5.53;;
42244;SDS011;27912;51.828;5.688;2023-07-20T02:31:33;7.82;;;5.22;;
42244;SDS011;27912;51.828;5.688;2023-07-20T02:33:58;8.82;;;5.25;;
42244;SDS011;27912;51.828;5.688;2023-07-20T02:36:24;6.20;;;4.90;;
42244;SDS011;27912;51.828;5.688;2023-07-20T02:38:49;7.60;;;4.93;;
42244;SDS011;27912;51.828;5.688;2023-07-20T02:41:15;7.38;;;4.50;;
42244;SDS011;27912;51.828;5.688;2023-07-20T02:43:41;6.18;;;4.30;;
42244;SDS011;27912;51.828;5.688;2023-07-20T02:46:06;6.47;;;4.38;;
42244;SDS011;27912;51.828;5.688;2023-07-20T02:48:32;6.13;;;4.43;;
42244;SDS011;27912;51.828;5.688;2023-07-20T02:50:57;4.35;;;3.80;;
42244;SDS011;27912;51.828;5.688;2023-07-20T02:53:23;5.75;;;4.05;;
42244;SDS011;27912;51.828;5.688;2023-07-20T02:55:48;6.03;;;4.18;;
42244;SDS011;27912;51.828;5.688;2023-07-20T02:58:14;4.35;;;3.67;;
42244;SDS011;27912;51.828;5.688;2023-07-20T03:00:39;7.15;;;4.43;;
42244;SDS011;27912;51.828;5.688;2023-07-20T03:03:07;5.35;;;4.55;;
42244;SDS011;27912;51.828;5.688;2023-07-20T03:05:34;6.68;;;4.35;;
42244;SDS011;27912;51.828;5.688;2023-07-20T03:08:02;7.13;;;4.93;;
42244;SDS011;27912;51.828;5.688;2023-07-20T03:10:31;5.57;;;4.63;;
42244;SDS011;27912;51.828;5.688;2023-07-20T03:12:57;6.32;;;4.75;;
42244;SDS011;27912;51.828;5.688;2023-07-20T03:15:22;6.00;;;4.68;;
42244;SDS011;27912;51.828;5.688;2023-07-20T03:17:48;6.35;;;5.32;;
42244;SDS011;27912;51.828;5.688;2023-07-20T03:20:13;5.78;;;5.18;;
42244;SDS011;27912;51.828;5.688;2023-07-20T03:22:39;7.40;;;5.15;;
42244;SDS011;27912;51.828;5.688;2023-07-20T03:25:05;8.65;;;5.60;;
42244;SDS011;27912;51.828;5.688;2023-07-20T03:27:30;9.88;;;6.28;;
42244;SDS011;27912;51.828;5.688;2023-07-20T03:29:56;8.65;;;6.07;;
42244;SDS011;27912;51.828;5.688;2023-07-20T03:32:21;6.53;;;5.05;;
42244;SDS011;27912;51.828;5.688;2023-07-20T03:34:47;8.50;;;6.15;;
42244;SDS011;27912;51.828;5.688;2023-07-20T03:37:13;5.55;;;4.97;;
42244;SDS011;27912;51.828;5.688;2023-07-20T03:39:38;7.35;;;5.22;;
42244;SDS011;27912;51.828;5.688;2023-07-20T03:42:04;6.35;;;5.05;;
42244;SDS011;27912;51.828;5.688;2023-07-20T03:44:30;10.05;;;6.05;;
42244;SDS011;27912;51.828;5.688;2023-07-20T03:46:55;7.55;;;4.82;;
42244;SDS011;27912;51.828;5.688;2023-07-20T03:49:21;5.72;;;4.97;;
42244;SDS011;27912;51.828;5.688;2023-07-20T03:51:46;6.47;;;5.38;;
42244;SDS011;27912;51.828;5.688;2023-07-20T03:54:12;6.60;;;4.90;;
42244;SDS011;27912;51.828;5.688;2023-07-20T03:56:37;5.55;;;4.18;;
42244;SDS011;27912;51.828;5.688;2023-07-20T03:59:04;5.50;;;4.15;;
42244;SDS011;27912;51.828;5.688;2023-07-20T04:01:30;6.93;;;4.60;;
42244;SDS011;27912;51.828;5.688;2023-07-20T04:04:01;6.63;;;4.63;;
42244;SDS011;27912;51.828;5.688;2023-07-20T04:06:29;6.63;;;4.78;;
42244;SDS011;27912;51.828;5.688;2023-07-20T04:08:54;6.40;;;5.10;;
42244;SDS011;27912;51.828;5.688;2023-07-20T04:11:20;5.75;;;4.97;;
42244;SDS011;27912;51.828;5.688;2023-07-20T04:13:45;5.47;;;4.90;;
42244;SDS011;27912;51.828;5.688;2023-07-20T04:16:11;5.95;;;4.50;;
42244;SDS011;27912;51.828;5.688;2023-07-20T04:18:36;4.78;;;4.15;;
42244;SDS011;27912;51.828;5.688;2023-07-20T04:21:02;5.75;;;3.90;;
42244;SDS011;27912;51.828;5.688;2023-07-20T04:23:28;7.22;;;5.07;;
42244;SDS011;27912;51.828;5.688;2023-07-20T04:25:53;5.60;;;4.63;;
42244;SDS011;27912;51.828;5.688;2023-07-20T04:28:18;6.65;;;5.13;;
42244;SDS011;27912;51.828;5.688;2023-07-20T04:30:44;7.32;;;5.55;;
42244;SDS011;27912;51.828;5.688;2023-07-20T04:33:09;8.60;;;6.05;;
42244;SDS011;27912;51.828;5.688;2023-07-20T04:38:16;9.35;;;6.15;;
42244;SDS011;27912;51.828;5.688;2023-07-20T04:40:46;7.97;;;5.85;;
42244;SDS011;27912;51.828;5.688;2023-07-20T04:43:13;7.88;;;5.93;;
42244;SDS011;27912;51.828;5.688;2023-07-20T04:45:40;9.60;;;6.38;;
42244;SDS011;27912;51.828;5.688;2023-07-20T04:48:06;13.15;;;5.38;;
42244;SDS011;27912;51.828;5.688;2023-07-20T04:50:35;7.22;;;5.93;;
42244;SDS011;27912;51.828;5.688;2023-07-20T04:53:01;7.43;;;5.78;;
42244;SDS011;27912;51.828;5.688;2023-07-20T04:55:27;10.10;;;5.55;;
42244;SDS011;27912;51.828;5.688;2023-07-20T04:57:53;8.23;;;5.45;;
42244;SDS011;27912;51.828;5.688;2023-07-20T05:00:19;9.07;;;7.35;;
42244;SDS011;27912;51.828;5.688;2023-07-20T05:02:44;7.85;;;7.03;;
42244;SDS011;27912;51.828;5.688;2023-07-20T05:05:12;12.73;;;7.88;;
42244;SDS011;27912;51.828;5.688;2023-07-20T05:07:38;9.43;;;6.93;;
42244;SDS011;27912;51.828;5.688;2023-07-20T05:10:04;7.78;;;6.65;;
42244;SDS011;27912;51.828;5.688;2023-07-20T05:12:30;10.68;;;7.22;;
42244;SDS011;27912;51.828;5.688;2023-07-20T05:14:55;10.45;;;6.60;;
42244;SDS011;27912;51.828;5.688;2023-07-20T05:17:21;6.72;;;6.13;;
42244;SDS011;27912;51.828;5.688;2023-07-20T05:19:46;7.07;;;6.38;;
42244;SDS011;27912;51.828;5.688;2023-07-20T05:22:13;8.82;;;6.85;;
42244;SDS011;27912;51.828;5.688;2023-07-20T05:24:38;6.38;;;5.78;;
42244;SDS011;27912;51.828;5.688;2023-07-20T05:27:04;7.53;;;6.13;;
42244;SDS011;27912;51.828;5.688;2023-07-20T05:29:30;8.77;;;5.57;;
42244;SDS011;27912;51.828;5.688;2023-07-20T05:31:56;9.48;;;5.10;;
42244;SDS011;27912;51.828;5.688;2023-07-20T05:34:22;5.38;;;4.78;;
42244;SDS011;27912;51.828;5.688;2023-07-20T05:36:48;6.93;;;4.88;;
42244;SDS011;27912;51.828;5.688;2023-07-20T05:39:13;4.55;;;4.15;;
42244;SDS011;27912;51.828;5.688;2023-07-20T05:41:39;5.60;;;3.67;;
42244;SDS011;27912;51.828;5.688;2023-07-20T05:44:05;5.38;;;3.63;;
42244;SDS011;27912;51.828;5.688;2023-07-20T05:46:31;5.20;;;3.33;;
42244;SDS011;27912;51.828;5.688;2023-07-20T05:48:56;4.05;;;2.40;;
42244;SDS011;27912;51.828;5.688;2023-07-20T05:51:22;3.92;;;2.60;;
42244;SDS011;27912;51.828;5.688;2023-07-20T05:53:47;5.53;;;2.78;;
42244;SDS011;27912;51.828;5.688;2023-07-20T05:56:13;3.95;;;2.35;;
42244;SDS011;27912;51.828;5.688;2023-07-20T05:58:39;2.50;;;2.20;;
42244;SDS011;27912;51.828;5.688;2023-07-20T06:01:04;5.85;;;2.20;;
42244;SDS011;27912;51.828;5.688;2023-07-20T06:03:33;3.15;;;2.85;;
42244;SDS011;27912;51.828;5.688;2023-07-20T06:06:02;3.80;;;2.60;;
42244;SDS011;27912;51.828;5.688;2023-07-20T06:08:29;3.97;;;2.58;;
42244;SDS011;27912;51.828;5.688;2023-07-20T06:10:57;4.70;;;2.92;;
42244;SDS011;27912;51.828;5.688;2023-07-20T06:13:22;5.95;;;3.05;;
42244;SDS011;27912;51.828;5.688;2023-07-20T06:15:49;4.50;;;3.22;;
42244;SDS011;27912;51.828;5.688;2023-07-20T06:18:14;3.72;;;2.30;;
42244;SDS011;27912;51.828;5.688;2023-07-20T06:20:40;3.95;;;2.92;;
42244;SDS011;27912;51.828;5.688;2023-07-20T06:23:05;4.05;;;3.40;;
42244;SDS011;27912;51.828;5.688;2023-07-20T06:25:31;4.45;;;3.35;;
42244;SDS011;27912;51.828;5.688;2023-07-20T06:27:56;4.57;;;3.22;;
42244;SDS011;27912;51.828;5.688;2023-07-20T06:30:22;4.13;;;2.38;;
42244;SDS011;27912;51.828;5.688;2023-07-20T06:32:48;2.50;;;1.95;;
42244;SDS011;27912;51.828;5.688;2023-07-20T06:35:14;3.20;;;2.13;;
42244;SDS011;27912;51.828;5.688;2023-07-20T06:37:41;3.75;;;1.77;;
42244;SDS011;27912;51.828;5.688;2023-07-20T06:40:07;3.08;;;1.95;;
42244;SDS011;27912;51.828;5.688;2023-07-20T06:42:34;5.30;;;1.92;;
42244;SDS011;27912;51.828;5.688;2023-07-20T06:45:00;3.00;;;2.05;;
42244;SDS011;27912;51.828;5.688;2023-07-20T06:47:25;2.80;;;1.13;;
42244;SDS011;27912;51.828;5.688;2023-07-20T06:49:52;1.73;;;1.13;;
42244;SDS011;27912;51.828;5.688;2023-07-20T06:52:17;2.53;;;1.50;;
42244;SDS011;27912;51.828;5.688;2023-07-20T06:54:43;2.40;;;1.40;;
42244;SDS011;27912;51.828;5.688;2023-07-20T06:57:08;3.78;;;1.63;;
42244;SDS011;27912;51.828;5.688;2023-07-20T06:59:34;1.88;;;0.75;;
42244;SDS011;27912;51.828;5.688;2023-07-20T07:01:59;3.17;;;0.45;;
42244;SDS011;27912;51.828;5.688;2023-07-20T07:04:25;1.02;;;0.40;;
42244;SDS011;27912;51.828;5.688;2023-07-20T07:06:51;0.82;;;0.40;;
42244;SDS011;27912;51.828;5.688;2023-07-20T07:09:16;2.50;;;0.35;;
42244;SDS011;27912;51.828;5.688;2023-07-20T07:11:42;1.17;;;0.40;;
42244;SDS011;27912;51.828;5.688;2023-07-20T07:14:08;1.65;;;0.30;;
42244;SDS011;27912;51.828;5.688;2023-07-20T07:16:34;3.20;;;0.30;;
42244;SDS011;27912;51.828;5.688;2023-07-20T07:18:59;2.90;;;0.38;;
42244;SDS011;27912;51.828;5.688;2023-07-20T07:21:25;0.85;;;0.20;;
42244;SDS011;27912;51.828;5.688;2023-07-20T07:23:50;1.50;;;0.32;;
42244;SDS011;27912;51.828;5.688;2023-07-20T07:26:18;1.92;;;0.75;;
42244;SDS011;27912;51.828;5.688;2023-07-20T07:28:44;2.03;;;1.13;;
42244;SDS011;27912;51.828;5.688;2023-07-20T07:31:09;2.80;;;0.90;;
42244;SDS011;27912;51.828;5.688;2023-07-20T07:33:35;1.55;;;0.77;;
42244;SDS011;27912;51.828;5.688;2023-07-20T07:36:01;2.88;;;0.88;;
42244;SDS011;27912;51.828;5.688;2023-07-20T07:38:26;1.83;;;0.75;;
42244;SDS011;27912;51.828;5.688;2023-07-20T07:40:52;1.88;;;0.80;;
42244;SDS011;27912;51.828;5.688;2023-07-20T07:43:17;2.17;;;0.80;;
42244;SDS011;27912;51.828;5.688;2023-07-20T07:45:43;2.53;;;0.90;;
42244;SDS011;27912;51.828;5.688;2023-07-20T07:48:08;1.98;;;0.95;;
42244;SDS011;27912;51.828;5.688;2023-07-20T07:50:37;1.80;;;1.27;;
42244;SDS011;27912;51.828;5.688;2023-07-20T07:53:05;3.47;;;0.85;;
42244;SDS011;27912;51.828;5.688;2023-07-20T07:55:30;3.22;;;1.02;;
42244;SDS011;27912;51.828;5.688;2023-07-20T07:57:56;2.67;;;0.80;;
42244;SDS011;27912;51.828;5.688;2023-07-20T08:00:22;1.27;;;0.68;;
42244;SDS011;27912;51.828;5.688;2023-07-20T08:02:50;2.35;;;0.77;;
42244;SDS011;27912;51.828;5.688;2023-07-20T08:05:16;3.78;;;1.13;;
42244;SDS011;27912;51.828;5.688;2023-07-20T08:07:41;1.35;;;0.73;;
42244;SDS011;27912;51.828;5.688;2023-07-20T08:10:08;2.17;;;0.52;;
42244;SDS011;27912;51.828;5.688;2023-07-20T08:12:34;0.95;;;0.50;;
42244;SDS011;27912;51.828;5.688;2023-07-20T08:14:59;1.15;;;0.65;;
42244;SDS011;27912;51.828;5.688;2023-07-20T08:17:25;1.67;;;0.60;;
42244;SDS011;27912;51.828;5.688;2023-07-20T08:19:50;0.85;;;0.40;;
42244;SDS011;27912;51.828;5.688;2023-07-20T08:22:16;1.55;;;0.30;;
42244;SDS011;27912;51.828;5.688;2023-07-20T08:24:42;2.13;;;0.30;;
42244;SDS011;27912;51.828;5.688;2023-07-20T08:27:08;1.10;;;0.30;;
42244;SDS011;27912;51.828;5.688;2023-07-20T08:29:34;2.83;;;0.40;;
42244;SDS011;27912;51.828;5.688;2023-07-20T08:32:00;2.67;;;0.30;;
42244;SDS011;27912;51.828;5.688;2023-07-20T08:34:26;1.60;;;0.40;;
42244;SDS011;27912;51.828;5.688;2023-07-20T08:36:51;2.10;;;0.22;;
42244;SDS011;27912;51.828;5.688;2023-07-20T08:39:17;0.93;;;0.20;;
42244;SDS011;27912;51.828;5.688;2023-07-20T08:41:43;1.38;;;0.20;;
42244;SDS011;27912;51.828;5.688;2023-07-20T08:44:09;1.02;;;0.25;;
42244;SDS011;27912;51.828;5.688;2023-07-20T08:46:36;0.70;;;0.20;;
42244;SDS011;27912;51.828;5.688;2023-07-20T08:49:04;0.63;;;0.30;;
42244;SDS011;27912;51.828;5.688;2023-07-20T08:51:30;1.25;;;0.30;;
42244;SDS011;27912;51.828;5.688;2023-07-20T08:53:57;0.60;;;0.30;;
42244;SDS011;27912;51.828;5.688;2023-07-20T08:56:23;1.15;;;0.30;;
42244;SDS011;27912;51.828;5.688;2023-07-20T08:58:51;2.65;;;0.20;;
42244;SDS011;27912;51.828;5.688;2023-07-20T09:01:21;1.30;;;0.35;;
42244;SDS011;27912;51.828;5.688;2023-07-20T09:03:47;0.77;;;0.28;;
42244;SDS011;27912;51.828;5.688;2023-07-20T09:06:13;1.23;;;0.30;;
42244;SDS011;27912;51.828;5.688;2023-07-20T09:08:40;2.50;;;0.30;;
42244;SDS011;27912;51.828;5.688;2023-07-20T09:11:06;0.80;;;0.22;;
42244;SDS011;27912;51.828;5.688;2023-07-20T09:13:32;1.25;;;0.30;;
42244;SDS011;27912;51.828;5.688;2023-07-20T09:15:58;2.03;;;0.30;;
42244;SDS011;27912;51.828;5.688;2023-07-20T09:18:25;2.35;;;0.30;;
42244;SDS011;27912;51.828;5.688;2023-07-20T09:21:01;1.08;;;0.20;;
42244;SDS011;27912;51.828;5.688;2023-07-20T09:23:31;1.40;;;0.40;;
42244;SDS011;27912;51.828;5.688;2023-07-20T09:26:10;0.88;;;0.20;;
42244;SDS011;27912;51.828;5.688;2023-07-20T09:28:42;1.65;;;0.30;;
42244;SDS011;27912;51.828;5.688;2023-07-20T09:31:15;1.38;;;0.30;;
42244;SDS011;27912;51.828;5.688;2023-07-20T09:33:42;0.82;;;0.20;;
42244;SDS011;27912;51.828;5.688;2023-07-20T09:36:09;1.10;;;0.30;;
42244;SDS011;27912;51.828;5.688;2023-07-20T09:38:36;0.77;;;0.30;;
42244;SDS011;27912;51.828;5.688;2023-07-20T09:41:02;0.80;;;0.20;;
42244;SDS011;27912;51.828;5.688;2023-07-20T09:43:31;0.90;;;0.30;;
42244;SDS011;27912;51.828;5.688;2023-07-20T09:45:58;1.10;;;0.30;;
42244;SDS011;27912;51.828;5.688;2023-07-20T09:48:24;1.00;;;0.40;;
42244;SDS011;27912;51.828;5.688;2023-07-20T09:50:51;1.50;;;0.30;;
42244;SDS011;27912;51.828;5.688;2023-07-20T09:53:18;1.90;;;0.20;;
42244;SDS011;27912;51.828;5.688;2023-07-20T09:55:44;1.20;;;0.30;;
42244;SDS011;27912;51.828;5.688;2023-07-20T09:58:11;2.15;;;0.30;;
42244;SDS011;27912;51.828;5.688;2023-07-20T10:00:37;0.70;;;0.30;;
42244;SDS011;27912;51.828;5.688;2023-07-20T10:03:04;0.98;;;0.40;;
42244;SDS011;27912;51.828;5.688;2023-07-20T10:05:32;1.02;;;0.30;;
42244;SDS011;27912;51.828;5.688;2023-07-20T10:08:00;0.88;;;0.30;;
42244;SDS011;27912;51.828;5.688;2023-07-20T10:10:27;1.20;;;0.50;;
42244;SDS011;27912;51.828;5.688;2023-07-20T10:12:56;0.50;;;0.22;;
42244;SDS011;27912;51.828;5.688;2023-07-20T10:15:32;0.82;;;0.30;;
42244;SDS011;27912;51.828;5.688;2023-07-20T10:18:02;1.30;;;0.20;;
42244;SDS011;27912;51.828;5.688;2023-07-20T10:20:48;1.77;;;0.30;;
42244;SDS011;27912;51.828;5.688;2023-07-20T10:23:16;2.38;;;0.40;;
42244;SDS011;27912;51.828;5.688;2023-07-20T10:25:42;2.33;;;0.20;;
42244;SDS011;27912;51.828;5.688;2023-07-20T10:28:08;1.30;;;0.30;;
42244;SDS011;27912;51.828;5.688;2023-07-20T10:33:05;1.00;;;0.30;;
42244;SDS011;27912;51.828;5.688;2023-07-20T10:35:51;1.85;;;0.22;;
42244;SDS011;27912;51.828;5.688;2023-07-20T10:38:37;1.25;;;0.30;;
42244;SDS011;27912;51.828;5.688;2023-07-20T10:43:42;1.20;;;0.20;;
42244;SDS011;27912;51.828;5.688;2023-07-20T10:46:09;1.38;;;0.47;;
42244;SDS011;27912;51.828;5.688;2023-07-20T10:48:39;1.80;;;0.35;;
42244;SDS011;27912;51.828;5.688;2023-07-20T10:51:26;1.05;;;0.50;;
42244;SDS011;27912;51.828;5.688;2023-07-20T10:53:52;1.85;;;0.40;;
42244;SDS011;27912;51.828;5.688;2023-07-20T10:56:20;1.65;;;0.40;;
42244;SDS011;27912;51.828;5.688;2023-07-20T10:58:47;0.98;;;0.40;;
42244;SDS011;27912;51.828;5.688;2023-07-20T11:01:13;1.08;;;0.40;;
42244;SDS011;27912;51.828;5.688;2023-07-20T11:03:40;0.88;;;0.45;;
42244;SDS011;27912;51.828;5.688;2023-07-20T11:09:05;0.80;;;0.30;;
42244;SDS011;27912;51.828;5.688;2023-07-20T11:11:33;1.02;;;0.47;;
42244;SDS011;27912;51.828;5.688;2023-07-20T11:14:01;0.90;;;0.20;;
42244;SDS011;27912;51.828;5.688;2023-07-20T11:19:18;0.85;;;0.20;;
42244;SDS011;27912;51.828;5.688;2023-07-20T11:21:51;1.90;;;0.25;;
42244;SDS011;27912;51.828;5.688;2023-07-20T11:24:20;1.02;;;0.30;;
42244;SDS011;27912;51.828;5.688;2023-07-20T11:26:47;1.10;;;0.40;;
42244;SDS011;27912;51.828;5.688;2023-07-20T11:29:17;0.80;;;0.30;;
42244;SDS011;27912;51.828;5.688;2023-07-20T11:31:49;2.80;;;0.35;;
42244;SDS011;27912;51.828;5.688;2023-07-20T11:34:16;0.80;;;0.30;;
42244;SDS011;27912;51.828;5.688;2023-07-20T11:36:45;1.65;;;0.30;;
42244;SDS011;27912;51.828;5.688;2023-07-20T11:39:13;0.55;;;0.22;;
42244;SDS011;27912;51.828;5.688;2023-07-20T11:41:51;1.00;;;0.30;;
42244;SDS011;27912;51.828;5.688;2023-07-20T11:44:18;2.63;;;0.30;;
42244;SDS011;27912;51.828;5.688;2023-07-20T11:46:53;0.95;;;0.30;;
42244;SDS011;27912;51.828;5.688;2023-07-20T11:49:38;0.77;;;0.30;;
42244;SDS011;27912;51.828;5.688;2023-07-20T11:52:06;1.63;;;0.30;;
42244;SDS011;27912;51.828;5.688;2023-07-20T11:54:37;0.75;;;0.30;;
42244;SDS011;27912;51.828;5.688;2023-07-20T11:57:04;0.70;;;0.30;;
42244;SDS011;27912;51.828;5.688;2023-07-20T11:59:33;2.05;;;0.45;;
42244;SDS011;27912;51.828;5.688;2023-07-20T12:02:02;0.85;;;0.28;;
42244;SDS011;27912;51.828;5.688;2023-07-20T12:04:28;0.93;;;0.40;;
42244;SDS011;27912;51.828;5.688;2023-07-20T12:06:54;2.30;;;0.40;;
42244;SDS011;27912;51.828;5.688;2023-07-20T12:09:22;1.10;;;0.40;;
42244;SDS011;27912;51.828;5.688;2023-07-20T12:11:49;1.42;;;0.50;;
42244;SDS011;27912;51.828;5.688;2023-07-20T12:14:16;2.58;;;0.50;;
42244;SDS011;27912;51.828;5.688;2023-07-20T12:16:42;1.40;;;0.57;;
42244;SDS011;27912;51.828;5.688;2023-07-20T12:19:09;1.40;;;0.38;;
42244;SDS011;27912;51.828;5.688;2023-07-20T12:21:39;2.08;;;0.38;;
42244;SDS011;27912;51.828;5.688;2023-07-20T12:24:06;1.08;;;0.50;;
42244;SDS011;27912;51.828;5.688;2023-07-20T12:26:34;1.52;;;0.50;;
42244;SDS011;27912;51.828;5.688;2023-07-20T12:29:00;1.40;;;0.40;;
42244;SDS011;27912;51.828;5.688;2023-07-20T12:31:26;2.00;;;0.85;;
42244;SDS011;27912;51.828;5.688;2023-07-20T12:33:53;2.20;;;0.50;;
42244;SDS011;27912;51.828;5.688;2023-07-20T12:36:22;1.10;;;0.47;;
42244;SDS011;27912;51.828;5.688;2023-07-20T12:38:48;0.93;;;0.40;;
42244;SDS011;27912;51.828;5.688;2023-07-20T12:41:14;0.77;;;0.35;;
42244;SDS011;27912;51.828;5.688;2023-07-20T12:43:43;1.20;;;0.52;;
42244;SDS011;27912;51.828;5.688;2023-07-20T12:46:09;0.98;;;0.40;;
42244;SDS011;27912;51.828;5.688;2023-07-20T12:48:40;1.10;;;0.50;;
42244;SDS011;27912;51.828;5.688;2023-07-20T12:51:07;0.95;;;0.38;;
42244;SDS011;27912;51.828;5.688;2023-07-20T12:53:34;1.63;;;0.70;;
42244;SDS011;27912;51.828;5.688;2023-07-20T12:56:00;2.78;;;0.60;;
42244;SDS011;27912;51.828;5.688;2023-07-20T12:58:25;2.75;;;0.30;;
42244;SDS011;27912;51.828;5.688;2023-07-20T13:00:51;0.88;;;0.30;;
42244;SDS011;27912;51.828;5.688;2023-07-20T13:03:17;2.25;;;0.30;;
42244;SDS011;27912;51.828;5.688;2023-07-20T13:05:44;2.40;;;1.05;;
42244;SDS011;27912;51.828;5.688;2023-07-20T13:08:10;1.52;;;0.30;;
42244;SDS011;27912;51.828;5.688;2023-07-20T13:10:38;2.22;;;0.30;;
42244;SDS011;27912;51.828;5.688;2023-07-20T13:13:07;0.88;;;0.30;;
42244;SDS011;27912;51.828;5.688;2023-07-20T13:15:40;1.20;;;0.40;;
42244;SDS011;27912;51.828;5.688;2023-07-20T13:18:07;1.15;;;0.30;;
42244;SDS011;27912;51.828;5.688;2023-07-20T13:20:33;1.05;;;0.30;;
42244;SDS011;27912;51.828;5.688;2023-07-20T13:22:59;1.55;;;0.30;;
42244;SDS011;27912;51.828;5.688;2023-07-20T13:25:24;2.60;;;0.45;;
42244;SDS011;27912;51.828;5.688;2023-07-20T13:27:50;1.30;;;0.30;;
42244;SDS011;27912;51.828;5.688;2023-07-20T13:30:16;1.75;;;0.68;;
42244;SDS011;27912;51.828;5.688;2023-07-20T13:32:42;1.85;;;0.40;;
42244;SDS011;27912;51.828;5.688;2023-07-20T13:35:08;1.17;;;0.40;;
42244;SDS011;27912;51.828;5.688;2023-07-20T13:37:35;2.58;;;0.73;;
42244;SDS011;27912;51.828;5.688;2023-07-20T13:40:00;1.35;;;0.50;;
42244;SDS011;27912;51.828;5.688;2023-07-20T13:42:26;2.25;;;0.52;;
42244;SDS011;27912;51.828;5.688;2023-07-20T13:44:51;1.00;;;0.30;;
42244;SDS011;27912;51.828;5.688;2023-07-20T13:47:17;2.67;;;0.30;;
42244;SDS011;27912;51.828;5.688;2023-07-20T13:49:43;0.68;;;0.40;;
42244;SDS011;27912;51.828;5.688;2023-07-20T13:52:09;1.08;;;0.40;;
42244;SDS011;27912;51.828;5.688;2023-07-20T13:54:34;1.55;;;0.40;;
42244;SDS011;27912;51.828;5.688;2023-07-20T13:57:00;0.93;;;0.30;;
42244;SDS011;27912;51.828;5.688;2023-07-20T13:59:25;3.22;;;0.60;;
42244;SDS011;27912;51.828;5.688;2023-07-20T14:01:51;0.52;;;0.30;;
42244;SDS011;27912;51.828;5.688;2023-07-20T14:04:17;1.00;;;0.30;;
42244;SDS011;27912;51.828;5.688;2023-07-20T14:06:42;1.00;;;0.30;;
42244;SDS011;27912;51.828;5.688;2023-07-20T14:09:08;2.75;;;0.47;;
42244;SDS011;27912;51.828;5.688;2023-07-20T14:11:34;1.85;;;0.40;;
42244;SDS011;27912;51.828;5.688;2023-07-20T14:13:59;2.58;;;0.20;;
42244;SDS011;27912;51.828;5.688;2023-07-20T14:16:25;1.05;;;0.30;;
42244;SDS011;27912;51.828;5.688;2023-07-20T14:18:51;0.77;;;0.28;;
42244;SDS011;27912;51.828;5.688;2023-07-20T14:21:17;1.40;;;0.40;;
42244;SDS011;27912;51.828;5.688;2023-07-20T14:23:45;1.75;;;0.40;;
42244;SDS011;27912;51.828;5.688;2023-07-20T14:26:15;4.30;;;0.30;;
42244;SDS011;27912;51.828;5.688;2023-07-20T14:28:41;0.90;;;0.40;;
42244;SDS011;27912;51.828;5.688;2023-07-20T14:31:06;2.20;;;0.40;;
42244;SDS011;27912;51.828;5.688;2023-07-20T14:33:32;1.05;;;0.30;;
42244;SDS011;27912;51.828;5.688;2023-07-20T14:35:58;0.73;;;0.30;;
42244;SDS011;27912;51.828;5.688;2023-07-20T14:38:24;3.13;;;0.40;;
42244;SDS011;27912;51.828;5.688;2023-07-20T14:40:50;1.27;;;0.35;;
42244;SDS011;27912;51.828;5.688;2023-07-20T14:43:16;1.02;;;0.35;;
42244;SDS011;27912;51.828;5.688;2023-07-20T14:45:42;0.90;;;0.47;;
42244;SDS011;27912;51.828;5.688;2023-07-20T14:48:07;1.10;;;0.43;;
42244;SDS011;27912;51.828;5.688;2023-07-20T14:50:33;1.23;;;0.47;;
42244;SDS011;27912;51.828;5.688;2023-07-20T14:52:59;1.20;;;0.40;;
42244;SDS011;27912;51.828;5.688;2023-07-20T14:55:25;2.15;;;0.30;;
42244;SDS011;27912;51.828;5.688;2023-07-20T14:57:50;1.75;;;0.52;;
42244;SDS011;27912;51.828;5.688;2023-07-20T15:00:17;1.73;;;0.63;;
42244;SDS011;27912;51.828;5.688;2023-07-20T15:02:43;1.23;;;0.40;;